Terminal Aerodrome Forecast
Issued by NWS Twin Cities, MN

Home | Current Version | Previous Version | Graphics & Text | Print | Product List | Glossary On
Versions: 1 2 3 4 5 6 7 8 9 10 11 12 13 14 15 16 17 18 19 20 21 22 23 24 25 26 27 28 29
000
FTUS43 KMPX 281505 AAA
TAFMSP
TAF AMD
KMSP 281505Z 2815/2918 16009KT P6SM SCT035 BKN080
     FM282000 14008KT P6SM SCT250
     FM290400 15003KT P6SM BKN150
      TEMPO 2909/2912 6SM BR=

USA.gov is the U.S. government's official web portal to all federal, state and local government web resources and services.